Time;durP1;ratioP1;P1;durP2;ratioP2;P2;SDS_P1;SDS_P2;PMS_P1;PMS_P2;Temp;Humidity;BMP_temperature;BMP_pressure;BME280_temperature;BME280_humidity;BME280_pressure;Samples;Min_cycle;Max_cycle;Signal;HPM_P1;HPM_P2
2021/12/12 00:05:53;;;;;;;8.27;6.20;;;;;;;20.41;49.08;100181.41;20485382;28;100927;-79
2021/12/12 00:16:00;;;;;;;8.30;6.32;;;;;;;20.40;48.44;100181.53;20503828;28;99321;-79
2021/12/12 00:26:02;;;;;;;9.45;6.80;;;;;;;20.38;48.60;100184.28;20509159;28;99140;-80
2021/12/12 00:36:05;;;;;;;8.85;6.57;;;;;;;20.35;48.62;100178.41;20494926;28;97884;-80
2021/12/12 00:46:09;;;;;;;8.50;6.87;;;;;;;20.32;48.76;100166.34;20498198;28;98249;-80
2021/12/12 00:56:11;;;;;;;9.20;7.10;;;;;;;20.30;48.53;100190.13;20509254;28;103215;-80
2021/12/12 01:06:14;;;;;;;10.93;7.18;;;;;;;20.29;48.69;100213.94;20498915;28;98352;-79
2021/12/12 01:16:26;;;;;;;9.03;7.07;;;;;;;20.25;48.75;100221.22;20502755;28;98928;-81
2021/12/12 01:26:29;;;;;;;11.35;8.30;;;;;;;20.23;48.66;100222.28;20507555;28;98657;-80
2021/12/12 01:47:06;;;;;;;13.57;10.07;;;;;;;20.16;48.54;100232.41;20472959;28;101204;-81
2021/12/12 01:57:09;;;;;;;14.80;10.77;;;;;;;20.16;48.55;100240.28;20501592;28;98429;-80
2021/12/12 02:07:13;;;;;;;15.23;10.95;;;;;;;20.15;48.68;100235.97;20499106;28;98355;-80
2021/12/12 02:17:26;;;;;;;14.70;11.40;;;;;;;20.11;48.61;100237.19;20501173;28;97763;-80
2021/12/12 02:37:57;;;;;;;16.45;12.05;;;;;;;20.05;48.60;100227.13;20494047;28;98097;-81
2021/12/12 02:48:02;;;;;;;16.45;12.52;;;;;;;20.01;48.53;100234.41;20480303;28;99137;-81
2021/12/12 02:58:08;;;;;;;18.58;13.50;;;;;;;20.00;48.52;100251.13;20495331;28;102308;-80
2021/12/12 03:08:10;;;;;;;17.75;12.77;;;;;;;19.97;48.05;100251.38;20488581;28;98651;-80
2021/12/12 03:18:17;;;;;;;17.73;12.73;;;;;;;19.94;48.54;100254.22;20503033;28;98134;-80
2021/12/12 03:28:20;;;;;;;16.92;12.23;;;;;;;19.95;47.60;100277.75;20510144;28;99760;-79
2021/12/12 03:38:24;;;;;;;17.90;13.17;;;;;;;19.94;47.63;100293.63;20509756;28;98431;-80
2021/12/12 03:48:33;;;;;;;19.75;13.18;;;;;;;19.95;47.75;100329.47;20513518;28;98484;-80
2021/12/12 03:58:35;;;;;;;18.25;13.27;;;;;;;19.95;48.08;100327.69;20512788;28;99820;-79
2021/12/12 04:08:42;;;;;;;17.73;13.05;;;;;;;19.93;47.76;100329.59;20508425;28;99143;-79
2021/12/12 04:18:43;;;;;;;19.70;13.90;;;;;;;19.95;47.48;100326.84;20505746;28;98724;-80
2021/12/12 04:28:44;;;;;;;20.05;14.55;;;;;;;19.94;47.61;100341.75;20502992;28;99474;-78
2021/12/12 04:38:45;;;;;;;20.15;14.07;;;;;;;19.93;47.68;100329.59;20515212;28;98269;-79
2021/12/12 04:59:21;;;;;;;19.20;14.15;;;;;;;19.92;47.46;100320.03;20516986;28;97422;-80
2021/12/12 05:09:58;;;;;;;20.23;14.85;;;;;;;19.94;47.52;100317.28;20509373;28;98643;-80
2021/12/12 05:20:06;;;;;;;35.72;24.42;;;;;;;20.06;47.36;100326.91;20498157;28;100755;-82
2021/12/12 05:30:13;;;;;;;33.25;23.23;;;;;;;20.17;47.09;100327.91;20512986;28;97870;-81
2021/12/12 05:40:15;;;;;;;40.65;27.73;;;;;;;20.26;46.95;100329.84;20522312;28;97340;-80
2021/12/12 05:50:17;;;;;;;33.17;22.10;;;;;;;20.31;46.50;100331.19;20516050;28;98675;-81
2021/12/12 06:00:18;;;;;;;29.50;21.20;;;;;;;20.38;46.76;100336.81;20501045;28;98591;-81
2021/12/12 06:10:20;;;;;;;31.08;21.20;;;;;;;20.45;46.61;100358.25;20506997;28;99793;-81
2021/12/12 06:20:22;;;;;;;32.13;22.27;;;;;;;20.51;46.29;100367.44;20510622;28;99069;-79
2021/12/12 06:30:24;;;;;;;32.80;22.90;;;;;;;20.56;46.12;100386.38;20479819;28;99432;-79
2021/12/12 06:40:25;;;;;;;37.55;26.15;;;;;;;20.61;46.21;100398.22;20503724;28;102147;-78
2021/12/12 06:50:27;;;;;;;44.25;28.23;;;;;;;20.72;46.65;100391.34;20463663;28;99498;-74
2021/12/12 07:00:28;;;;;;;33.67;22.60;;;;;;;20.77;46.56;100405.00;20485177;28;97566;-77
2021/12/12 07:10:31;;;;;;;38.13;25.10;;;;;;;20.85;46.58;100412.28;20482988;28;98653;-76
2021/12/12 07:20:39;;;;;;;37.13;25.60;;;;;;;20.93;47.04;100402.03;20477587;28;99237;-74
2021/12/12 07:30:42;;;;;;;36.35;25.50;;;;;;;21.08;46.75;100411.41;20460889;28;98973;-73
2021/12/12 07:40:45;;;;;;;41.43;26.53;;;;;;;21.16;47.28;100415.25;20473128;28;97994;-73
2021/12/12 07:50:48;;;;;;;37.47;25.73;;;;;;;21.22;46.95;100418.22;20466892;28;98737;-72
2021/12/12 08:00:51;;;;;;;36.33;25.27;;;;;;;21.34;47.76;100407.72;20478130;28;98017;-74
2021/12/12 08:10:54;;;;;;;39.00;27.95;;;;;;;21.40;47.28;100408.06;20480461;28;100060;-78
2021/12/12 08:20:55;;;;;;;44.93;31.60;;;;;;;21.42;46.49;100429.00;20484793;28;98932;-77
2021/12/12 08:30:57;;;;;;;43.85;27.90;;;;;;;21.45;46.77;100441.97;20470596;28;98614;-75
2021/12/12 08:41:01;;;;;;;45.20;29.40;;;;;;;21.50;46.82;100439.81;20474738;28;98835;-74
2021/12/12 08:51:10;;;;;;;54.70;37.28;;;;;;;21.46;46.59;100441.00;20465171;28;100867;-72
2021/12/12 09:01:15;;;;;;;41.83;26.40;;;;;;;21.45;46.86;100431.41;20465793;28;101386;-73
2021/12/12 09:11:29;;;;;;;13.30;8.98;;;;;;;21.45;46.86;100431.41;20477947;28;97884;-73
2021/12/12 09:21:37;;;;;;;11.80;6.93;;;;;;;19.04;34.38;100420.69;20486542;28;101787;-71
2021/12/12 09:31:48;;;;;;;12.38;7.65;;;;;;;19.74;37.79;100408.00;20484562;28;97732;-72
2021/12/12 09:42:10;;;;;;;11.90;8.40;;;;;;;20.13;39.79;100401.72;20494244;28;98361;-71
2021/12/12 09:52:37;;;;;;;15.07;9.90;;;;;;;20.35;40.59;100400.16;20496437;28;97348;-70
2021/12/12 10:02:52;;;;;;;17.20;10.25;;;;;;;20.52;40.66;100403.31;20477118;28;101338;-70
2021/12/12 10:13:04;;;;;;;15.43;10.57;;;;;;;20.64;41.79;100390.09;20489960;28;101871;-72
2021/12/12 10:23:17;;;;;;;18.47;11.40;;;;;;;20.71;41.50;100394.91;20488183;28;98067;-71
2021/12/12 10:33:46;;;;;;;17.43;11.23;;;;;;;20.78;41.97;100386.44;20477024;28;101032;-71
2021/12/12 10:44:14;;;;;;;25.38;16.08;;;;;;;20.79;41.70;100388.13;20462104;28;101706;-69
2021/12/12 10:54:23;;;;;;;17.38;12.05;;;;;;;20.86;42.21;100392.94;20476067;28;100020;-67
2021/12/12 11:04:37;;;;;;;22.05;13.52;;;;;;;20.93;42.53;100392.38;20486078;28;98723;-70
2021/12/12 11:15:03;;;;;;;19.95;12.15;;;;;;;21.04;42.46;100377.53;20504023;28;101201;-74
2021/12/12 11:25:36;;;;;;;22.17;14.70;;;;;;;21.20;42.44;100371.91;20498567;28;97700;-72
2021/12/12 11:35:40;;;;;;;22.77;12.73;;;;;;;21.22;40.58;100380.53;20465083;28;98802;-71
2021/12/12 11:45:52;;;;;;;19.60;12.35;;;;;;;21.42;41.30;100386.88;20472522;28;98863;-70
2021/12/12 11:55:58;;;;;;;23.55;11.18;;;;;;;21.58;41.58;100378.63;20473969;28;99237;-72
2021/12/12 12:06:08;;;;;;;16.15;10.55;;;;;;;21.68;42.09;100365.53;20492501;28;101913;-71
2021/12/12 12:16:27;;;;;;;15.90;10.35;;;;;;;21.78;41.88;100368.31;20493782;28;98335;-71
2021/12/12 12:26:52;;;;;;;13.30;9.05;;;;;;;21.85;41.88;100369.47;20479434;28;101403;-70
2021/12/12 12:37:31;;;;;;;15.18;9.85;;;;;;;21.88;42.11;100391.16;20484111;28;98963;-70
2021/12/12 12:47:41;;;;;;;15.55;9.75;;;;;;;21.93;42.08;100374.97;20488123;28;97750;-71
2021/12/12 12:57:43;;;;;;;15.35;10.15;;;;;;;21.94;41.80;100386.38;20485715;28;97993;-70
2021/12/12 13:08:38;;;;;;;13.83;9.70;;;;;;;21.96;41.75;100409.00;20492499;28;98120;-67
2021/12/12 13:19:05;;;;;;;15.98;10.27;;;;;;;21.98;41.54;100420.25;20367407;28;100361;-71
2021/12/12 13:29:20;;;;;;;15.07;10.45;;;;;;;21.96;42.11;100426.59;20473554;28;99694;-69
2021/12/12 13:39:58;;;;;;;13.40;10.05;;;;;;;21.93;41.96;100446.16;20451296;28;98240;-70
2021/12/12 13:50:19;;;;;;;14.20;10.35;;;;;;;21.86;41.59;100445.81;20479424;28;102671;-68
2021/12/12 14:00:29;;;;;;;12.90;9.82;;;;;;;21.79;42.04;100452.53;20481415;28;98015;-68
2021/12/12 14:10:45;;;;;;;13.73;9.27;;;;;;;21.71;41.64;100458.38;20471534;28;101549;-70
2021/12/12 14:20:53;;;;;;;13.27;9.70;;;;;;;21.65;41.94;100479.94;20465153;28;101086;-68
2021/12/12 14:30:56;;;;;;;11.48;8.63;;;;;;;21.61;41.77;100470.63;20464636;28;102111;-70
2021/12/12 14:41:00;;;;;;;17.73;9.33;;;;;;;21.53;41.88;100480.88;20477521;28;101006;-69
2021/12/12 14:51:10;;;;;;;21.65;14.30;;;;;;;21.42;42.77;100485.19;20476701;28;105234;-70
2021/12/12 15:01:21;;;;;;;14.87;10.83;;;;;;;21.35;42.95;100496.28;20487008;28;97269;-68
2021/12/12 15:11:27;;;;;;;14.90;10.48;;;;;;;21.36;42.98;100514.63;20466647;28;98814;-67
2021/12/12 15:21:34;;;;;;;15.15;10.07;;;;;;;21.35;42.62;100530.53;20463221;28;98430;-67
2021/12/12 15:31:37;;;;;;;13.68;10.15;;;;;;;21.35;42.99;100541.06;20464412;28;99263;-68
2021/12/12 15:41:42;;;;;;;14.05;10.75;;;;;;;21.33;43.02;100543.00;20468392;28;101320;-68
2021/12/12 15:51:43;;;;;;;18.13;10.52;;;;;;;21.31;42.96;100547.53;20458053;28;99587;-68
2021/12/12 16:01:49;;;;;;;12.55;9.63;;;;;;;21.30;43.02;100559.03;20463256;28;102055;-68
2021/12/12 16:12:09;;;;;;;22.08;9.65;;;;;;;21.28;42.42;100580.22;20453088;28;104413;-67
2021/12/12 16:22:27;;;;;;;13.93;9.93;;;;;;;21.30;42.77;100593.25;20457167;28;101841;-67
2021/12/12 16:32:47;;;;;;;16.02;10.32;;;;;;;21.21;43.20;100605.31;20462460;28;99149;-70
2021/12/12 16:42:50;;;;;;;21.05;11.20;;;;;;;21.15;42.96;100614.50;20465526;28;100383;-69
2021/12/12 16:52:54;;;;;;;16.83;12.17;;;;;;;21.12;42.71;100622.66;20479822;28;98263;-68
2021/12/12 17:03:02;;;;;;;16.95;12.05;;;;;;;21.09;42.68;100626.34;20461796;28;102236;-68
2021/12/12 17:13:03;;;;;;;18.65;11.52;;;;;;;21.14;43.57;100630.44;20452134;28;98639;-67
2021/12/12 17:23:08;;;;;;;20.17;12.35;;;;;;;21.19;43.40;100639.69;20458893;28;98761;-67
2021/12/12 17:33:16;;;;;;;19.40;11.02;;;;;;;21.28;43.68;100659.22;20464662;28;102236;-67
2021/12/12 17:54:04;;;;;;;27.85;13.45;;;;;;;21.50;46.18;100658.47;20457254;28;100053;-67
2021/12/12 18:04:11;;;;;;;27.83;15.53;;;;;;;21.55;46.77;100651.06;20471364;28;100252;-68
2021/12/12 18:14:13;;;;;;;26.95;15.43;;;;;;;21.58;46.73;100658.78;20463626;28;100271;-68
2021/12/12 18:24:18;;;;;;;26.40;14.93;;;;;;;21.60;46.28;100685.00;20474121;28;99470;-67
2021/12/12 18:34:31;;;;;;;25.75;14.98;;;;;;;21.60;46.04;100695.56;20459599;28;99801;-67
2021/12/12 18:44:33;;;;;;;;;;;;;;;21.58;45.69;100690.41;20474670;28;98433;-67
2021/12/12 18:54:40;;;;;;;20.85;13.88;;;;;;;21.57;45.36;100724.78;20464869;28;99698;-67
2021/12/12 19:04:49;;;;;;;27.30;13.60;;;;;;;21.54;45.56;100724.97;20454071;28;102462;-67
2021/12/12 19:14:54;;;;;;;28.73;14.40;;;;;;;21.55;45.59;100753.00;20454341;28;101025;-68
2021/12/12 19:24:56;;;;;;;22.40;13.02;;;;;;;21.57;46.34;100769.56;20446093;28;102564;-66
2021/12/12 19:35:03;;;;;;;18.23;12.33;;;;;;;21.57;46.38;100785.38;20450694;28;101825;-67
2021/12/12 19:45:30;;;;;;;19.25;11.05;;;;;;;21.58;46.44;100789.69;20441085;28;100612;-66
2021/12/12 19:55:45;;;;;;;20.58;11.23;;;;;;;21.57;46.11;100785.38;20445015;28;100505;-67
2021/12/12 20:05:59;;;;;;;18.20;10.30;;;;;;;21.59;46.41;100799.28;20443530;28;102926;-70
2021/12/12 20:16:03;;;;;;;19.00;10.20;;;;;;;21.55;46.11;100790.72;20463564;28;100090;-71
2021/12/12 20:26:10;;;;;;;12.80;8.85;;;;;;;21.53;46.43;100795.28;20463078;28;102158;-72
2021/12/12 20:36:30;;;;;;;12.82;8.70;;;;;;;21.51;46.26;100797.16;20462504;28;101443;-71
2021/12/12 20:46:56;;;;;;;12.70;8.73;;;;;;;21.47;46.13;100795.72;20477908;28;101674;-71
2021/12/12 20:57:02;;;;;;;11.60;8.10;;;;;;;21.46;45.97;100777.38;20472209;28;101938;-74
2021/12/12 21:07:08;;;;;;;13.63;7.35;;;;;;;21.43;45.94;100788.97;20423155;28;99164;-73
2021/12/12 21:17:31;;;;;;;15.15;7.03;;;;;;;21.38;46.05;100809.53;20469943;28;99848;-71
2021/12/12 21:27:36;;;;;;;15.95;7.55;;;;;;;21.18;45.58;100832.88;20454026;28;101091;-69
2021/12/12 21:37:39;;;;;;;11.02;6.57;;;;;;;21.21;45.91;100840.53;20489683;28;99776;-70
2021/12/12 21:48:10;;;;;;;11.80;6.57;;;;;;;21.21;46.23;100856.34;20497524;28;98885;-70
2021/12/12 21:58:16;;;;;;;8.70;6.00;;;;;;;21.18;46.49;100861.84;20472635;28;98709;-70
2021/12/12 22:08:21;;;;;;;8.27;5.72;;;;;;;21.14;46.58;100836.69;20484240;28;97255;-70
2021/12/12 22:18:31;;;;;;;9.52;5.78;;;;;;;21.09;46.58;100823.84;20492203;28;100749;-70
2021/12/12 22:28:44;;;;;;;8.98;5.50;;;;;;;21.05;46.97;100845.22;20490849;28;99092;-71
2021/12/12 22:38:53;;;;;;;10.15;5.28;;;;;;;21.03;47.23;100840.06;20481804;28;98711;-71
2021/12/12 22:49:05;;;;;;;7.82;5.07;;;;;;;21.01;47.19;100846.38;20481203;28;97704;-70
2021/12/12 22:59:14;;;;;;;7.93;4.80;;;;;;;20.99;47.21;100849.09;20472458;28;97222;-71
2021/12/12 23:09:41;;;;;;;7.65;4.80;;;;;;;20.97;47.41;100827.31;20489475;28;97181;-71
2021/12/12 23:19:50;;;;;;;7.00;4.55;;;;;;;20.93;46.94;100825.84;20468963;28;99024;-71
2021/12/12 23:29:58;;;;;;;6.22;4.20;;;;;;;20.89;46.99;100843.63;20436815;28;102344;-69
2021/12/12 23:40:07;;;;;;;7.07;4.30;;;;;;;20.88;46.78;100847.22;20445434;28;102919;-70
2021/12/12 23:50:20;;;;;;;12.02;4.03;;;;;;;20.84;46.85;100844.91;20450517;28;101426;-70
